Hauptseite
METAR-TAF:

METAR-TAF

Flughäfen :

Militärflugplatz Woensdrecht

Woensdrecht, Niederlande

Breite: 51-27N, Länge: 004-20E, Höhe: 20 m

Beobachtung

Neuester Wetterbericht von vor 12 Minuten, um 10:55 UTC
Wind 7 kt aus West/Nordwest, variierte zwischen West/Südwest und Nordost
Temperatur 24°C
Luftfeuchtigkeit 47%
Luftdruck 1018 hPa
Sichtweite 10 km oder mehr
Aufgelockert bewölkt in der Höhe von 35000 ft
Aufgelockert bewölkt in der Höhe von 4500 ft

METAR: EHWO 191055Z AUTO 28004KT 250V050 9999 SCT350 24/12 Q1018 BLU 30007KT 9999 SCT045

Zeit: 13:07 (11:07 UTC)

Prognose

Neuester Wetterbericht von vor 2 Stunden und 40 Minuten, um 08:27 UTC
Gültige Prognose vom 19 um 09 UTC bis 19 um 21 UTC
Wind 7 kt aus Nord
Sichtweite 10 km oder mehr
keine Wolken unter 1500 m und keine Kumulonimbus oder Gewitterwolken

TAF: EHWO 190827Z 1909/1921 01007KT CAVOK

Wetterbeobachtungen und Prognosen von mehr als 4000 Flughäfen (METAR und TAF Bericht).

Die verfügbaren Stationen werden durch gelbe und rote Markierungen auf der Karte dargestellt.

Führen Sie die Maus auf sie, um den Namen der Station zu sehen.

Darauf klicken, um die Beobachtung von Wetterbeobachtungen und Prognosen zu sehen.

Um die Karte zu ändern : klicken Sie auf den grünen Tasten mit einem schwarzen Kreuz Zum Vergrößern, auf den grünen Button mit einem Gedankenstrich zu verkleinern, oder auf die grünen Pfeile für benachbarte Karten.


METAR-TAF: